sensor_id;sensor_type;location;lat;lon;timestamp;pressure;altitude;pressure_sealevel;temperature;humidity
12182;BME280;6154;51.550;12.138;2022-11-11T00:00:40;101818.69;;;13.70;61.51
12182;BME280;6154;51.550;12.138;2022-11-11T00:03:27;101826.59;;;13.71;61.49
12182;BME280;6154;51.550;12.138;2022-11-11T00:06:16;101833.37;;;13.78;60.96
12182;BME280;6154;51.550;12.138;2022-11-11T00:09:04;101838.38;;;13.86;60.60
12182;BME280;6154;51.550;12.138;2022-11-11T00:11:51;101844.41;;;13.90;60.33
12182;BME280;6154;51.550;12.138;2022-11-11T00:14:38;101839.00;;;13.91;60.10
12182;BME280;6154;51.550;12.138;2022-11-11T00:17:24;101846.97;;;13.91;60.08
12182;BME280;6154;51.550;12.138;2022-11-11T00:20:29;101853.31;;;13.89;59.94
12182;BME280;6154;51.550;12.138;2022-11-11T00:23:34;101852.44;;;13.88;59.83
12182;BME280;6154;51.550;12.138;2022-11-11T00:26:39;101849.78;;;13.88;59.56
12182;BME280;6154;51.550;12.138;2022-11-11T00:29:46;101848.22;;;13.84;59.58
12182;BME280;6154;51.550;12.138;2022-11-11T00:32:52;101849.34;;;13.78;59.54
12182;BME280;6154;51.550;12.138;2022-11-11T00:35:57;101848.62;;;13.75;59.71
12182;BME280;6154;51.550;12.138;2022-11-11T00:39:04;101846.91;;;13.74;59.67
12182;BME280;6154;51.550;12.138;2022-11-11T00:42:10;101853.16;;;13.73;59.62
12182;BME280;6154;51.550;12.138;2022-11-11T00:45:15;101855.09;;;13.69;59.70
12182;BME280;6154;51.550;12.138;2022-11-11T00:48:22;101842.97;;;13.62;59.83
12182;BME280;6154;51.550;12.138;2022-11-11T00:51:45;101835.06;;;13.61;59.67
12182;BME280;6154;51.550;12.138;2022-11-11T00:54:55;101837.81;;;13.59;59.89
12182;BME280;6154;51.550;12.138;2022-11-11T00:58:00;101843.34;;;13.55;60.08
12182;BME280;6154;51.550;12.138;2022-11-11T01:01:16;101853.22;;;13.51;59.98
12182;BME280;6154;51.550;12.138;2022-11-11T01:04:22;101865.66;;;13.50;59.97
12182;BME280;6154;51.550;12.138;2022-11-11T01:07:28;101871.13;;;13.47;60.02
12182;BME280;6154;51.550;12.138;2022-11-11T01:10:35;101886.22;;;13.47;59.98
12182;BME280;6154;51.550;12.138;2022-11-11T01:13:46;101881.91;;;13.44;59.95
12182;BME280;6154;51.550;12.138;2022-11-11T01:16:52;101874.97;;;13.40;60.36
12182;BME280;6154;51.550;12.138;2022-11-11T01:19:58;101877.09;;;13.32;60.66
12182;BME280;6154;51.550;12.138;2022-11-11T01:23:04;101881.44;;;13.35;60.89
12182;BME280;6154;51.550;12.138;2022-11-11T01:26:13;101868.41;;;13.29;61.23
12182;BME280;6154;51.550;12.138;2022-11-11T01:29:19;101861.13;;;13.34;61.22
12182;BME280;6154;51.550;12.138;2022-11-11T01:32:25;101868.22;;;13.33;60.96
12182;BME280;6154;51.550;12.138;2022-11-11T01:35:30;101866.69;;;13.28;60.98
12182;BME280;6154;51.550;12.138;2022-11-11T01:38:37;101865.75;;;13.29;60.63
12182;BME280;6154;51.550;12.138;2022-11-11T01:41:44;101859.50;;;13.30;60.50
12182;BME280;6154;51.550;12.138;2022-11-11T01:44:50;101860.56;;;13.26;60.49
12182;BME280;6154;51.550;12.138;2022-11-11T01:47:56;101855.44;;;13.21;60.98
12182;BME280;6154;51.550;12.138;2022-11-11T01:51:35;101853.53;;;13.25;60.60
12182;BME280;6154;51.550;12.138;2022-11-11T01:54:45;101847.56;;;13.18;61.14
12182;BME280;6154;51.550;12.138;2022-11-11T01:57:56;101845.91;;;13.15;61.52
12182;BME280;6154;51.550;12.138;2022-11-11T02:01:04;101849.38;;;13.17;61.34
12182;BME280;6154;51.550;12.138;2022-11-11T02:04:11;101839.84;;;13.12;61.85
12182;BME280;6154;51.550;12.138;2022-11-11T02:07:38;101839.72;;;13.15;61.79
12182;BME280;6154;51.550;12.138;2022-11-11T02:10:45;101840.59;;;13.15;61.84
12182;BME280;6154;51.550;12.138;2022-11-11T02:13:53;101840.84;;;13.09;62.22
12182;BME280;6154;51.550;12.138;2022-11-11T02:17:16;101832.47;;;13.18;61.58
12182;BME280;6154;51.550;12.138;2022-11-11T02:20:24;101832.47;;;13.18;61.35
12182;BME280;6154;51.550;12.138;2022-11-11T02:23:34;101834.59;;;13.10;61.73
12182;BME280;6154;51.550;12.138;2022-11-11T02:26:43;101841.00;;;13.06;62.00
12182;BME280;6154;51.550;12.138;2022-11-11T02:29:53;101841.59;;;13.13;61.64
12182;BME280;6154;51.550;12.138;2022-11-11T02:32:59;101841.53;;;13.14;61.50
12182;BME280;6154;51.550;12.138;2022-11-11T02:36:07;101854.06;;;13.11;61.66
12182;BME280;6154;51.550;12.138;2022-11-11T02:39:14;101848.69;;;13.12;61.20
12182;BME280;6154;51.550;12.138;2022-11-11T02:42:23;101851.63;;;13.06;61.41
12182;BME280;6154;51.550;12.138;2022-11-11T02:45:29;101854.41;;;13.03;61.48
12182;BME280;6154;51.550;12.138;2022-11-11T02:48:34;101860.78;;;12.99;61.39
12182;BME280;6154;51.550;12.138;2022-11-11T02:51:40;101867.75;;;13.02;61.14
12182;BME280;6154;51.550;12.138;2022-11-11T02:54:48;101867.16;;;12.95;61.38
12182;BME280;6154;51.550;12.138;2022-11-11T02:57:56;101874.34;;;12.93;61.12
12182;BME280;6154;51.550;12.138;2022-11-11T03:01:01;101863.75;;;12.91;61.11
12182;BME280;6154;51.550;12.138;2022-11-11T03:04:07;101865.66;;;12.88;61.11
12182;BME280;6154;51.550;12.138;2022-11-11T03:07:13;101866.66;;;12.85;61.01
12182;BME280;6154;51.550;12.138;2022-11-11T03:10:18;101869.41;;;12.84;61.00
12182;BME280;6154;51.550;12.138;2022-11-11T03:13:26;101878.41;;;12.80;61.20
12182;BME280;6154;51.550;12.138;2022-11-11T03:16:32;101885.81;;;12.72;61.61
12182;BME280;6154;51.550;12.138;2022-11-11T03:19:55;101889.28;;;12.74;61.21
12182;BME280;6154;51.550;12.138;2022-11-11T03:23:21;101890.25;;;12.71;61.21
12182;BME280;6154;51.550;12.138;2022-11-11T03:26:27;101905.41;;;12.69;61.17
12182;BME280;6154;51.550;12.138;2022-11-11T03:29:34;101899.09;;;12.72;61.04
12182;BME280;6154;51.550;12.138;2022-11-11T03:32:40;101896.44;;;12.72;60.65
12182;BME280;6154;51.550;12.138;2022-11-11T03:35:46;101902.75;;;12.69;60.80
12182;BME280;6154;51.550;12.138;2022-11-11T03:38:52;101909.97;;;12.65;60.94
12182;BME280;6154;51.550;12.138;2022-11-11T03:41:56;101902.09;;;12.62;61.14
12182;BME280;6154;51.550;12.138;2022-11-11T03:45:04;101901.16;;;12.65;61.15
12182;BME280;6154;51.550;12.138;2022-11-11T03:48:10;101899.59;;;12.59;61.56
12182;BME280;6154;51.550;12.138;2022-11-11T03:51:16;101907.38;;;12.64;61.59
12182;BME280;6154;51.550;12.138;2022-11-11T03:54:22;101901.16;;;12.65;61.52
12182;BME280;6154;51.550;12.138;2022-11-11T03:57:27;101900.22;;;12.66;61.54
12182;BME280;6154;51.550;12.138;2022-11-11T04:00:36;101892.31;;;12.64;61.60
12182;BME280;6154;51.550;12.138;2022-11-11T04:03:42;101883.41;;;12.65;61.57
12182;BME280;6154;51.550;12.138;2022-11-11T04:07:06;101882.62;;;12.63;61.87
12182;BME280;6154;51.550;12.138;2022-11-11T04:10:31;101880.81;;;12.64;61.65
12182;BME280;6154;51.550;12.138;2022-11-11T04:13:40;101872.00;;;12.63;61.51
12182;BME280;6154;51.550;12.138;2022-11-11T04:17:06;101877.31;;;12.63;61.71
12182;BME280;6154;51.550;12.138;2022-11-11T04:20:11;101869.38;;;12.62;61.69
12182;BME280;6154;51.550;12.138;2022-11-11T04:23:35;101875.53;;;12.62;61.65
12182;BME280;6154;51.550;12.138;2022-11-11T04:26:40;101873.81;;;12.61;61.92
12182;BME280;6154;51.550;12.138;2022-11-11T04:29:45;101868.41;;;12.64;61.88
12182;BME280;6154;51.550;12.138;2022-11-11T04:32:59;101866.00;;;12.58;62.31
12182;BME280;6154;51.550;12.138;2022-11-11T04:36:05;101863.03;;;12.66;62.20
12182;BME280;6154;51.550;12.138;2022-11-11T04:39:14;101856.72;;;12.69;61.90
12182;BME280;6154;51.550;12.138;2022-11-11T04:42:47;101864.56;;;12.72;61.92
12182;BME280;6154;51.550;12.138;2022-11-11T04:45:59;101863.97;;;12.65;62.17
12182;BME280;6154;51.550;12.138;2022-11-11T04:49:05;101852.41;;;12.66;62.31
12182;BME280;6154;51.550;12.138;2022-11-11T04:52:11;101866.69;;;12.63;62.46
12182;BME280;6154;51.550;12.138;2022-11-11T04:55:42;101857.78;;;12.64;62.46
12182;BME280;6154;51.550;12.138;2022-11-11T04:59:11;101862.09;;;12.67;62.19
12182;BME280;6154;51.550;12.138;2022-11-11T05:02:27;101856.59;;;12.72;62.01
12182;BME280;6154;51.550;12.138;2022-11-11T05:06:04;101853.94;;;12.72;62.19
12182;BME280;6154;51.550;12.138;2022-11-11T05:09:27;101853.94;;;12.72;62.19
12182;BME280;6154;51.550;12.138;2022-11-11T05:12:33;101850.41;;;12.71;62.20
12182;BME280;6154;51.550;12.138;2022-11-11T05:15:39;101854.78;;;12.72;62.04
12182;BME280;6154;51.550;12.138;2022-11-11T05:19:02;101857.34;;;12.75;62.11
12182;BME280;6154;51.550;12.138;2022-11-11T05:22:29;101861.59;;;12.79;61.93
12182;BME280;6154;51.550;12.138;2022-11-11T05:25:36;101867.97;;;12.75;62.16
12182;BME280;6154;51.550;12.138;2022-11-11T05:28:44;101872.34;;;12.76;61.90
12182;BME280;6154;51.550;12.138;2022-11-11T05:31:50;101869.88;;;12.72;62.04
12182;BME280;6154;51.550;12.138;2022-11-11T05:34:55;101852.91;;;12.76;61.85
12182;BME280;6154;51.550;12.138;2022-11-11T05:38:02;101840.47;;;12.76;61.82
12182;BME280;6154;51.550;12.138;2022-11-11T05:41:26;101850.25;;;12.76;61.71
12182;BME280;6154;51.550;12.138;2022-11-11T05:44:32;101843.94;;;12.78;61.61
12182;BME280;6154;51.550;12.138;2022-11-11T05:47:37;101842.00;;;12.82;61.48
12182;BME280;6154;51.550;12.138;2022-11-11T05:50:43;101846.41;;;12.83;61.35
12182;BME280;6154;51.550;12.138;2022-11-11T05:53:49;101849.88;;;12.85;61.29
12182;BME280;6154;51.550;12.138;2022-11-11T05:56:55;101841.91;;;12.85;61.23
12182;BME280;6154;51.550;12.138;2022-11-11T06:00:02;101846.41;;;12.83;61.13
12182;BME280;6154;51.550;12.138;2022-11-11T06:03:08;101843.69;;;12.84;61.08
12182;BME280;6154;51.550;12.138;2022-11-11T06:06:14;101852.53;;;12.85;60.93
12182;BME280;6154;51.550;12.138;2022-11-11T06:09:21;101853.44;;;12.84;60.95
12182;BME280;6154;51.550;12.138;2022-11-11T06:12:27;101858.75;;;12.84;60.96
12182;BME280;6154;51.550;12.138;2022-11-11T06:15:54;101862.34;;;12.83;60.93
12182;BME280;6154;51.550;12.138;2022-11-11T06:19:00;101866.84;;;12.81;61.08
12182;BME280;6154;51.550;12.138;2022-11-11T06:22:07;101865.91;;;12.82;61.10
12182;BME280;6154;51.550;12.138;2022-11-11T06:25:14;101873.09;;;12.80;61.12
12182;BME280;6154;51.550;12.138;2022-11-11T06:28:34;101876.53;;;12.82;61.06
12182;BME280;6154;51.550;12.138;2022-11-11T06:31:40;101876.66;;;12.79;61.34
12182;BME280;6154;51.550;12.138;2022-11-11T06:34:46;101883.66;;;12.81;61.38
12182;BME280;6154;51.550;12.138;2022-11-11T06:37:51;101884.72;;;12.77;61.45
12182;BME280;6154;51.550;12.138;2022-11-11T06:40:58;101881.34;;;12.72;62.00
12182;BME280;6154;51.550;12.138;2022-11-11T06:44:03;101883.12;;;12.73;62.16
12182;BME280;6154;51.550;12.138;2022-11-11T06:47:09;101883.97;;;12.74;62.19
12182;BME280;6154;51.550;12.138;2022-11-11T06:50:15;101885.81;;;12.72;62.31
12182;BME280;6154;51.550;12.138;2022-11-11T06:53:21;101888.34;;;12.75;62.28
12182;BME280;6154;51.550;12.138;2022-11-11T06:56:29;101892.88;;;12.73;62.65
12182;BME280;6154;51.550;12.138;2022-11-11T06:59:34;101896.44;;;12.72;62.76
12182;BME280;6154;51.550;12.138;2022-11-11T07:02:40;101892.59;;;12.79;62.59
12182;BME280;6154;51.550;12.138;2022-11-11T07:05:46;101903.16;;;12.80;62.38
12182;BME280;6154;51.550;12.138;2022-11-11T07:08:52;101901.37;;;12.81;62.40
12182;BME280;6154;51.550;12.138;2022-11-11T07:11:58;101905.03;;;12.78;62.47
12182;BME280;6154;51.550;12.138;2022-11-11T07:15:05;101913.28;;;12.92;62.27
12182;BME280;6154;51.550;12.138;2022-11-11T07:18:11;101917.56;;;12.97;62.04
12182;BME280;6154;51.550;12.138;2022-11-11T07:21:16;101922.44;;;13.07;61.80
12182;BME280;6154;51.550;12.138;2022-11-11T07:24:21;101930.34;;;13.09;61.81
12182;BME280;6154;51.550;12.138;2022-11-11T07:27:28;101939.88;;;13.14;61.59
12182;BME280;6154;51.550;12.138;2022-11-11T07:30:34;101938.59;;;13.25;61.30
12182;BME280;6154;51.550;12.138;2022-11-11T07:33:40;101952.47;;;13.31;61.35
12182;BME280;6154;51.550;12.138;2022-11-11T07:36:45;101960.00;;;13.42;61.10
12182;BME280;6154;51.550;12.138;2022-11-11T07:39:51;101962.56;;;13.45;61.07
12182;BME280;6154;51.550;12.138;2022-11-11T07:42:59;101956.97;;;13.51;60.76
12182;BME280;6154;51.550;12.138;2022-11-11T07:46:04;101953.38;;;13.52;60.63
12182;BME280;6154;51.550;12.138;2022-11-11T07:49:10;101949.19;;;13.67;60.54
12182;BME280;6154;51.550;12.138;2022-11-11T07:52:15;101959.69;;;13.70;60.56
12182;BME280;6154;51.550;12.138;2022-11-11T07:55:20;101969.22;;;13.75;60.45
12182;BME280;6154;51.550;12.138;2022-11-11T07:58:28;101969.09;;;13.78;60.33
12182;BME280;6154;51.550;12.138;2022-11-11T08:01:34;101974.94;;;13.87;60.45
12182;BME280;6154;51.550;12.138;2022-11-11T08:04:40;101980.72;;;13.96;60.38
12182;BME280;6154;51.550;12.138;2022-11-11T08:07:45;101977.59;;;14.07;60.30
12182;BME280;6154;51.550;12.138;2022-11-11T08:10:53;101981.66;;;14.16;60.32
12182;BME280;6154;51.550;12.138;2022-11-11T08:14:00;101988.28;;;14.26;60.09
12182;BME280;6154;51.550;12.138;2022-11-11T08:17:05;101993.19;;;14.35;60.01
12182;BME280;6154;51.550;12.138;2022-11-11T08:20:11;101991.91;;;14.44;59.84
12182;BME280;6154;51.550;12.138;2022-11-11T08:23:17;101998.63;;;14.52;59.68
12182;BME280;6154;51.550;12.138;2022-11-11T08:26:49;102000.94;;;14.60;59.63
12182;BME280;6154;51.550;12.138;2022-11-11T08:29:58;101985.47;;;14.68;59.48
12182;BME280;6154;51.550;12.138;2022-11-11T08:33:05;101996.28;;;14.65;59.20
12182;BME280;6154;51.550;12.138;2022-11-11T08:36:30;101986.91;;;14.75;59.18
12182;BME280;6154;51.550;12.138;2022-11-11T08:39:36;101987.28;;;14.86;59.24
12182;BME280;6154;51.550;12.138;2022-11-11T08:42:42;101978.97;;;14.92;59.21
12182;BME280;6154;51.550;12.138;2022-11-11T08:45:51;101981.84;;;15.07;59.23
12182;BME280;6154;51.550;12.138;2022-11-11T08:48:57;101978.47;;;15.03;58.99
12182;BME280;6154;51.550;12.138;2022-11-11T08:52:02;101983.97;;;15.17;59.22
12182;BME280;6154;51.550;12.138;2022-11-11T08:55:08;101987.69;;;15.32;59.10
12182;BME280;6154;51.550;12.138;2022-11-11T08:58:13;101991.00;;;15.37;58.99
12182;BME280;6154;51.550;12.138;2022-11-11T09:01:24;101983.41;;;15.47;58.84
12182;BME280;6154;51.550;12.138;2022-11-11T09:04:30;101984.75;;;15.56;58.86
12182;BME280;6154;51.550;12.138;2022-11-11T09:07:55;101990.44;;;15.67;58.88
12182;BME280;6154;51.550;12.138;2022-11-11T09:11:04;101982.25;;;15.70;58.60
12182;BME280;6154;51.550;12.138;2022-11-11T09:14:10;101978.50;;;15.74;58.40
12182;BME280;6154;51.550;12.138;2022-11-11T09:17:17;101983.66;;;15.77;58.83
12182;BME280;6154;51.550;12.138;2022-11-11T09:20:23;101979.09;;;15.79;58.24
12182;BME280;6154;51.550;12.138;2022-11-11T09:23:28;101989.53;;;16.01;58.74
12182;BME280;6154;51.550;12.138;2022-11-11T09:26:34;101998.78;;;16.11;58.22
12182;BME280;6154;51.550;12.138;2022-11-11T09:29:40;102000.97;;;16.20;58.56
12182;BME280;6154;51.550;12.138;2022-11-11T09:32:47;102004.50;;;16.21;58.35
12182;BME280;6154;51.550;12.138;2022-11-11T09:35:53;102007.47;;;16.32;58.27
12182;BME280;6154;51.550;12.138;2022-11-11T09:38:58;102019.47;;;16.41;58.35
12182;BME280;6154;51.550;12.138;2022-11-11T09:42:10;102012.03;;;16.30;57.63
12182;BME280;6154;51.550;12.138;2022-11-11T09:45:22;102017.28;;;16.31;57.55
12182;BME280;6154;51.550;12.138;2022-11-11T09:48:44;102020.03;;;16.30;57.75
12182;BME280;6154;51.550;12.138;2022-11-11T09:51:55;102017.50;;;16.44;57.20
12182;BME280;6154;51.550;12.138;2022-11-11T09:55:11;102014.50;;;16.50;57.81
12182;BME280;6154;51.550;12.138;2022-11-11T09:58:22;102016.97;;;16.71;57.97
12182;BME280;6154;51.550;12.138;2022-11-11T10:01:35;102021.56;;;16.84;57.73
12182;BME280;6154;51.550;12.138;2022-11-11T10:04:54;102030.34;;;17.02;57.64
12182;BME280;6154;51.550;12.138;2022-11-11T10:08:04;102028.56;;;17.18;57.28
12182;BME280;6154;51.550;12.138;2022-11-11T10:11:19;102037.50;;;17.33;57.46
12182;BME280;6154;51.550;12.138;2022-11-11T10:14:30;102032.91;;;17.51;57.06
12182;BME280;6154;51.550;12.138;2022-11-11T10:17:42;102037.47;;;17.65;56.98
12182;BME280;6154;51.550;12.138;2022-11-11T10:20:55;102032.53;;;17.73;56.24
12182;BME280;6154;51.550;12.138;2022-11-11T10:24:05;102034.97;;;17.92;56.52
12182;BME280;6154;51.550;12.138;2022-11-11T10:27:17;102044.38;;;17.99;55.85
12182;BME280;6154;51.550;12.138;2022-11-11T10:30:25;102047.94;;;18.14;56.34
12182;BME280;6154;51.550;12.138;2022-11-11T10:33:41;102047.03;;;18.29;56.33
12182;BME280;6154;51.550;12.138;2022-11-11T10:36:53;102041.97;;;18.38;55.65
12182;BME280;6154;51.550;12.138;2022-11-11T10:40:03;102041.28;;;18.63;56.02
12182;BME280;6154;51.550;12.138;2022-11-11T10:43:20;102056.06;;;18.71;55.47
12182;BME280;6154;51.550;12.138;2022-11-11T10:46:28;102052.72;;;18.81;54.85
12182;BME280;6154;51.550;12.138;2022-11-11T10:49:42;102050.56;;;19.01;55.68
12182;BME280;6154;51.550;12.138;2022-11-11T10:52:59;102058.84;;;18.98;54.57
12182;BME280;6154;51.550;12.138;2022-11-11T10:56:14;102058.13;;;19.08;53.62
12182;BME280;6154;51.550;12.138;2022-11-11T10:59:24;102052.78;;;19.08;54.25
12182;BME280;6154;51.550;12.138;2022-11-11T11:02:35;102052.66;;;19.10;55.19
12182;BME280;6154;51.550;12.138;2022-11-11T11:05:47;102055.50;;;19.21;54.64
12182;BME280;6154;51.550;12.138;2022-11-11T11:08:58;102054.69;;;19.06;53.59
12182;BME280;6154;51.550;12.138;2022-11-11T11:12:10;102057.53;;;19.17;54.24
12182;BME280;6154;51.550;12.138;2022-11-11T11:15:20;102047.63;;;19.32;54.04
12182;BME280;6154;51.550;12.138;2022-11-11T11:18:27;102049.50;;;19.44;54.49
12182;BME280;6154;51.550;12.138;2022-11-11T11:21:47;102043.22;;;19.31;54.77
12182;BME280;6154;51.550;12.138;2022-11-11T11:25:08;102040.50;;;19.45;52.06
12182;BME280;6154;51.550;12.138;2022-11-11T11:28:13;102040.25;;;19.63;52.56
12182;BME280;6154;51.550;12.138;2022-11-11T11:31:33;102048.97;;;19.66;54.24
12182;BME280;6154;51.550;12.138;2022-11-11T11:34:47;102039.97;;;19.80;53.18
12182;BME280;6154;51.550;12.138;2022-11-11T11:37:54;102034.53;;;19.94;52.32
12182;BME280;6154;51.550;12.138;2022-11-11T11:41:01;102033.13;;;20.01;53.45
12182;BME280;6154;51.550;12.138;2022-11-11T11:44:24;102031.56;;;20.24;53.24
12182;BME280;6154;51.550;12.138;2022-11-11T11:47:39;102023.06;;;20.43;50.80
12182;BME280;6154;51.550;12.138;2022-11-11T11:50:48;102026.16;;;20.37;50.69
12182;BME280;6154;51.550;12.138;2022-11-11T11:54:06;102024.00;;;20.29;50.38
12182;BME280;6154;51.550;12.138;2022-11-11T11:57:28;102033.59;;;20.59;51.16
12182;BME280;6154;51.550;12.138;2022-11-11T12:00:45;102023.97;;;20.80;50.57
12182;BME280;6154;51.550;12.138;2022-11-11T12:04:39;102024.00;;;20.67;50.42
12182;BME280;6154;51.550;12.138;2022-11-11T12:08:01;102018.81;;;20.77;48.35
12182;BME280;6154;51.550;12.138;2022-11-11T12:11:17;102020.37;;;20.43;48.59
12182;BME280;6154;51.550;12.138;2022-11-11T12:14:37;102009.47;;;20.70;49.30
12182;BME280;6154;51.550;12.138;2022-11-11T12:17:54;101998.72;;;20.94;49.27
12182;BME280;6154;51.550;12.138;2022-11-11T12:21:06;101998.03;;;20.79;48.79
12182;BME280;6154;51.550;12.138;2022-11-11T12:24:26;101997.19;;;20.79;48.86
12182;BME280;6154;51.550;12.138;2022-11-11T12:27:39;101994.31;;;21.06;49.18
12182;BME280;6154;51.550;12.138;2022-11-11T12:30:53;101976.56;;;21.14;50.32
12182;BME280;6154;51.550;12.138;2022-11-11T12:34:15;101978.53;;;21.12;50.28
12182;BME280;6154;51.550;12.138;2022-11-11T12:37:35;101976.25;;;21.19;50.27
12182;BME280;6154;51.550;12.138;2022-11-11T12:40:53;101965.25;;;21.22;47.98
12182;BME280;6154;51.550;12.138;2022-11-11T12:44:03;101961.22;;;21.51;48.89
12182;BME280;6154;51.550;12.138;2022-11-11T12:47:21;101966.53;;;21.64;50.35
12182;BME280;6154;51.550;12.138;2022-11-11T12:50:37;101971.72;;;21.78;48.39
12182;BME280;6154;51.550;12.138;2022-11-11T12:53:53;101953.34;;;21.84;48.53
12182;BME280;6154;51.550;12.138;2022-11-11T12:57:10;101948.31;;;21.33;45.34
12182;BME280;6154;51.550;12.138;2022-11-11T13:00:26;101950.47;;;21.63;45.87
12182;BME280;6154;51.550;12.138;2022-11-11T13:03:50;101946.50;;;21.44;48.76
12182;BME280;6154;51.550;12.138;2022-11-11T13:07:12;101946.59;;;21.32;44.86
12182;BME280;6154;51.550;12.138;2022-11-11T13:10:27;101942.00;;;21.45;45.65
12182;BME280;6154;51.550;12.138;2022-11-11T13:13:47;101941.19;;;21.32;46.07
12182;BME280;6154;51.550;12.138;2022-11-11T13:16:59;101946.28;;;21.47;47.09
12182;BME280;6154;51.550;12.138;2022-11-11T13:20:15;101947.41;;;21.56;48.11
12182;BME280;6154;51.550;12.138;2022-11-11T13:23:24;101948.91;;;21.60;46.11
12182;BME280;6154;51.550;12.138;2022-11-11T13:26:35;101951.50;;;21.73;48.44
12182;BME280;6154;51.550;12.138;2022-11-11T13:30:06;101963.97;;;21.74;48.30
12182;BME280;6154;51.550;12.138;2022-11-11T13:33:20;101976.59;;;21.73;44.98
12182;BME280;6154;51.550;12.138;2022-11-11T13:36:41;101964.84;;;21.74;48.81
12182;BME280;6154;51.550;12.138;2022-11-11T13:39:49;101964.09;;;21.72;46.74
12182;BME280;6154;51.550;12.138;2022-11-11T13:43:02;101952.94;;;21.55;48.29
12182;BME280;6154;51.550;12.138;2022-11-11T13:46:29;101960.41;;;21.62;48.62
12182;BME280;6154;51.550;12.138;2022-11-11T13:49:39;101954.53;;;21.57;46.78
12182;BME280;6154;51.550;12.138;2022-11-11T13:52:57;101964.78;;;21.52;47.80
12182;BME280;6154;51.550;12.138;2022-11-11T13:56:05;101974.50;;;21.55;48.02
12182;BME280;6154;51.550;12.138;2022-11-11T13:59:19;101975.56;;;21.52;49.19
12182;BME280;6154;51.550;12.138;2022-11-11T14:02:30;101971.41;;;21.48;48.56
12182;BME280;6154;51.550;12.138;2022-11-11T14:05:36;101965.72;;;21.40;48.86
12182;BME280;6154;51.550;12.138;2022-11-11T14:08:51;101974.38;;;21.32;49.49
12182;BME280;6154;51.550;12.138;2022-11-11T14:12:22;101973.03;;;21.27;47.79
12182;BME280;6154;51.550;12.138;2022-11-11T14:15:41;101976.37;;;21.17;48.50
12182;BME280;6154;51.550;12.138;2022-11-11T14:18:47;101977.69;;;21.12;49.17
12182;BME280;6154;51.550;12.138;2022-11-11T14:21:54;101969.72;;;21.10;49.47
12182;BME280;6154;51.550;12.138;2022-11-11T14:25:19;101979.97;;;21.05;49.42
12182;BME280;6154;51.550;12.138;2022-11-11T14:28:27;101981.03;;;21.03;47.94
12182;BME280;6154;51.550;12.138;2022-11-11T14:31:58;101986.50;;;20.90;49.46
12182;BME280;6154;51.550;12.138;2022-11-11T14:35:14;101991.38;;;20.85;48.51
12182;BME280;6154;51.550;12.138;2022-11-11T14:38:42;101990.31;;;20.75;49.50
12182;BME280;6154;51.550;12.138;2022-11-11T14:41:51;101997.84;;;20.70;49.11
12182;BME280;6154;51.550;12.138;2022-11-11T14:44:58;101999.37;;;20.61;49.72
12182;BME280;6154;51.550;12.138;2022-11-11T14:51:57;101995.63;;;20.51;50.06
12182;BME280;6154;51.550;12.138;2022-11-11T14:55:13;101987.53;;;20.38;50.29
12182;BME280;6154;51.550;12.138;2022-11-11T14:58:24;101992.81;;;20.27;50.08
12182;BME280;6154;51.550;12.138;2022-11-11T15:01:31;101994.44;;;20.17;50.41
12182;BME280;6154;51.550;12.138;2022-11-11T15:04:39;101990.66;;;20.06;50.22
12182;BME280;6154;51.550;12.138;2022-11-11T15:08:05;101995.94;;;19.95;50.17
12182;BME280;6154;51.550;12.138;2022-11-11T15:11:26;101996.56;;;19.86;49.50
12182;BME280;6154;51.550;12.138;2022-11-11T15:14:41;101998.34;;;19.73;50.24
12182;BME280;6154;51.550;12.138;2022-11-11T15:18:00;101990.59;;;19.56;50.78
12182;BME280;6154;51.550;12.138;2022-11-11T15:21:13;101993.97;;;19.45;50.65
12182;BME280;6154;51.550;12.138;2022-11-11T15:24:31;101997.56;;;19.31;50.66
12182;BME280;6154;51.550;12.138;2022-11-11T15:27:46;101992.91;;;19.20;51.12
12182;BME280;6154;51.550;12.138;2022-11-11T15:31:03;101982.34;;;19.05;50.96
12182;BME280;6154;51.550;12.138;2022-11-11T15:34:22;101987.72;;;18.90;51.05
12182;BME280;6154;51.550;12.138;2022-11-11T15:37:31;101983.28;;;18.77;51.20
12182;BME280;6154;51.550;12.138;2022-11-11T15:40:45;101984.06;;;18.64;51.14
12182;BME280;6154;51.550;12.138;2022-11-11T15:43:52;101982.97;;;18.53;50.84
12182;BME280;6154;51.550;12.138;2022-11-11T15:47:00;101991.88;;;18.39;51.50
12182;BME280;6154;51.550;12.138;2022-11-11T15:50:15;101990.63;;;18.30;51.49
12182;BME280;6154;51.550;12.138;2022-11-11T15:53:22;101981.53;;;18.19;51.49
12182;BME280;6154;51.550;12.138;2022-11-11T15:56:30;101989.50;;;18.06;51.52
12182;BME280;6154;51.550;12.138;2022-11-11T15:59:36;101995.75;;;17.91;51.88
12182;BME280;6154;51.550;12.138;2022-11-11T16:02:45;101996.41;;;17.80;52.00
12182;BME280;6154;51.550;12.138;2022-11-11T16:05:51;101999.72;;;17.69;52.17
12182;BME280;6154;51.550;12.138;2022-11-11T16:08:56;101998.53;;;17.59;52.30
12182;BME280;6154;51.550;12.138;2022-11-11T16:12:02;101992.59;;;17.54;51.96
12182;BME280;6154;51.550;12.138;2022-11-11T16:15:09;102000.97;;;17.48;51.79
12182;BME280;6154;51.550;12.138;2022-11-11T16:18:20;101996.16;;;17.39;51.75
12182;BME280;6154;51.550;12.138;2022-11-11T16:21:29;102002.81;;;17.32;51.99
12182;BME280;6154;51.550;12.138;2022-11-11T16:24:38;102000.66;;;17.22;52.11
12182;BME280;6154;51.550;12.138;2022-11-11T16:27:44;102008.09;;;17.17;52.42
12182;BME280;6154;51.550;12.138;2022-11-11T16:30:53;102008.44;;;17.11;52.34
12182;BME280;6154;51.550;12.138;2022-11-11T16:34:00;102014.16;;;17.05;52.16
12182;BME280;6154;51.550;12.138;2022-11-11T16:37:26;102015.53;;;16.97;52.42
12182;BME280;6154;51.550;12.138;2022-11-11T16:40:40;102015.19;;;16.87;52.55